createdAt,value
2019-04-11T00:01:02.024Z,50.80
2019-04-11T00:03:31.629Z,52.70
2019-04-11T00:06:01.388Z,51.13
2019-04-11T00:08:30.695Z,53.17
2019-04-11T00:10:59.926Z,53.63
2019-04-11T00:13:31.725Z,53.13
2019-04-11T00:16:01.307Z,50.07
2019-04-11T00:18:30.639Z,48.30
2019-04-11T00:21:00.326Z,50.97
2019-04-11T00:23:30.233Z,51.70
2019-04-11T00:26:00.055Z,51.80
2019-04-11T00:28:29.919Z,50.87
2019-04-11T00:30:59.265Z,53.60
2019-04-11T00:33:29.883Z,51.23
2019-04-11T00:35:59.900Z,48.67
2019-04-11T00:38:29.961Z,50.57
2019-04-11T00:40:59.693Z,51.17
2019-04-11T00:43:36.816Z,61.67
2019-04-11T00:46:00.176Z,52.77
2019-04-11T00:48:31.006Z,50.33
2019-04-11T00:51:01.333Z,47.97
2019-04-11T00:53:30.965Z,49.00
2019-04-11T00:56:00.182Z,47.20
2019-04-11T00:58:29.768Z,48.93
2019-04-11T01:00:59.650Z,53.30
2019-04-11T01:03:29.058Z,49.87
2019-04-11T01:05:58.328Z,50.03
2019-04-11T01:08:27.503Z,48.10
2019-04-11T01:10:57.367Z,49.87
2019-04-11T01:13:26.981Z,50.07
2019-04-11T01:16:07.081Z,47.83
2019-04-11T01:18:36.286Z,46.60
2019-04-11T01:21:06.216Z,44.43
2019-04-11T01:23:35.473Z,46.00
2019-04-11T01:26:05.284Z,45.30
2019-04-11T01:28:34.829Z,47.33
2019-04-11T01:31:09.713Z,46.47
2019-04-11T01:33:40.085Z,47.97
2019-04-11T01:36:09.488Z,44.20
2019-04-11T01:38:44.315Z,46.00
2019-04-11T01:41:14.122Z,44.20
2019-04-11T01:43:52.642Z,46.83
2019-04-11T01:46:14.411Z,43.07
2019-04-11T01:49:08.399Z,40.23
2019-04-11T01:51:37.981Z,44.47
2019-04-11T01:54:07.756Z,40.60
2019-04-11T01:56:37.106Z,36.40
2019-04-11T01:59:06.998Z,36.63
2019-04-11T02:01:47.254Z,35.33
2019-04-11T02:04:22.247Z,35.00
2019-04-11T02:06:51.595Z,39.50
2019-04-11T02:09:22.021Z,37.10
2019-04-11T02:11:52.039Z,36.07
2019-04-11T02:14:22.595Z,34.43
2019-04-11T02:16:53.599Z,35.63
2019-04-11T02:19:23.891Z,33.47
2019-04-11T02:21:54.899Z,29.47
2019-04-11T02:24:44.895Z,29.93
2019-04-11T02:27:21.116Z,28.03
2019-04-11T02:29:50.930Z,26.63
2019-04-11T02:32:24.641Z,23.53
2019-04-11T02:34:54.629Z,24.03
2019-04-11T02:37:24.210Z,23.60
2019-04-11T02:39:55.781Z,23.13
2019-04-11T02:42:25.603Z,20.83
2019-04-11T02:45:13.479Z,21.47
2019-04-11T02:47:32.454Z,24.07
2019-04-11T02:49:59.295Z,20.57
2019-04-11T02:52:28.881Z,20.93
2019-04-11T02:54:58.592Z,22.47
2019-04-11T02:57:29.895Z,20.13
2019-04-11T02:59:59.930Z,18.63
2019-04-11T03:02:30.803Z,20.30
2019-04-11T03:05:00.478Z,20.73
2019-04-11T03:07:30.084Z,20.80
2019-04-11T03:10:00.308Z,22.53
2019-04-11T03:12:31.672Z,21.73
2019-04-11T03:15:16.371Z,22.20
2019-04-11T03:17:36.749Z,23.53
2019-04-11T03:20:15.520Z,22.03
2019-04-11T03:22:34.595Z,19.93
2019-04-11T03:25:06.097Z,21.23
2019-04-11T03:27:36.964Z,22.27
2019-04-11T03:30:10.738Z,25.10
2019-04-11T03:33:24.908Z,19.80
2019-04-11T03:36:04.071Z,21.33
2019-04-11T03:38:09.149Z,19.10
2019-04-11T03:40:33.568Z,22.27
2019-04-11T03:42:59.424Z,23.60
2019-04-11T03:45:34.819Z,20.73
2019-04-11T03:48:02.386Z,18.73
2019-04-11T03:50:23.234Z,21.03
2019-04-11T03:52:49.632Z,19.20
2019-04-11T03:55:43.404Z,17.33
2019-04-11T03:58:15.171Z,17.77
2019-04-11T06:15:25.086Z,17.43
2019-04-11T06:17:54.601Z,16.50
2019-04-11T06:20:35.562Z,17.00
2019-04-11T06:23:27.524Z,16.37
2019-04-11T06:26:18.923Z,18.33
2019-04-11T06:28:49.466Z,17.83
2019-04-11T06:31:36.462Z,17.30
2019-04-11T06:34:07.260Z,19.47
2019-04-11T06:36:46.935Z,15.63
2019-04-11T06:39:47.808Z,20.63
2019-04-11T06:46:20.835Z,20.93
2019-04-11T06:49:15.087Z,20.80
2019-04-11T06:51:48.446Z,18.13
2019-04-11T06:54:25.225Z,18.53
2019-04-11T06:56:54.581Z,19.87
2019-04-11T06:59:44.916Z,17.13
2019-04-11T07:02:19.643Z,17.97
2019-04-11T07:04:58.387Z,16.57
2019-04-11T07:07:30.589Z,21.67
2019-04-11T07:10:06.105Z,18.87
2019-04-11T07:12:55.406Z,20.37
2019-04-11T07:15:27.217Z,19.37
2019-04-11T07:18:14.192Z,19.60
2019-04-11T07:21:02.859Z,19.37
2019-04-11T07:23:51.420Z,17.17
2019-04-11T07:26:27.369Z,16.47
2019-04-11T07:29:15.675Z,18.67
2019-04-11T07:32:07.005Z,19.33
2019-04-11T07:34:56.539Z,17.43
2019-04-11T07:37:40.554Z,18.63
2019-04-11T07:40:37.133Z,20.60
2019-04-11T07:43:26.932Z,19.17
2019-04-11T07:46:25.555Z,17.53
2019-04-11T07:48:59.414Z,18.87
2019-04-11T07:51:30.072Z,18.07
2019-04-11T07:54:04.804Z,19.53
2019-04-11T07:56:59.247Z,19.43
2019-04-11T07:59:35.158Z,21.33
2019-04-11T08:02:24.338Z,20.27
2019-04-11T08:05:15.707Z,19.57
2019-04-11T08:08:13.368Z,19.87
2019-04-11T08:10:48.398Z,19.03
2019-04-11T08:13:32.585Z,18.97
2019-04-11T08:16:20.885Z,18.13
2019-04-11T08:19:20.660Z,19.53
2019-04-11T08:22:21.018Z,21.57
2019-04-11T08:25:07.101Z,21.67
2019-04-11T08:27:51.010Z,20.77
2019-04-11T08:30:10.837Z,23.07
2019-04-11T08:32:53.808Z,20.90
2019-04-11T08:35:45.471Z,22.03
2019-04-11T08:38:20.451Z,22.83
2019-04-11T08:41:09.451Z,20.33
2019-04-11T08:43:39.410Z,20.27
2019-04-11T08:46:33.410Z,22.33
2019-04-11T08:49:05.636Z,22.17
2019-04-11T08:51:35.702Z,21.20
2019-04-11T08:54:25.879Z,25.33
2019-04-11T08:56:55.755Z,19.53
2019-04-11T08:59:47.078Z,20.93
2019-04-11T09:02:22.857Z,23.93
2019-04-11T09:05:18.809Z,20.50
2019-04-11T09:08:10.006Z,20.87
2019-04-11T09:10:58.215Z,21.23
2019-04-11T09:13:43.873Z,23.70
2019-04-11T09:16:31.901Z,22.40
2019-04-11T09:19:06.309Z,28.20
2019-04-11T09:21:53.051Z,28.77
2019-04-11T09:25:16.884Z,24.00
2019-04-11T09:28:09.159Z,23.50
2019-04-11T09:31:09.259Z,22.00
2019-04-11T09:43:13.019Z,20.33
2019-04-11T09:46:10.463Z,25.30
2019-04-11T09:48:54.389Z,23.07
2019-04-11T09:51:58.345Z,26.10
2019-04-11T09:54:48.478Z,24.83
2019-04-11T09:57:30.714Z,25.63
2019-04-11T10:00:26.395Z,26.47
2019-04-11T10:02:58.716Z,25.90
2019-04-11T10:05:48.256Z,26.13
2019-04-11T10:08:44.213Z,22.17
2019-04-11T10:17:26.503Z,27.30
2019-04-11T10:20:07.130Z,25.10
2019-04-11T10:23:08.232Z,21.77
2019-04-11T10:25:49.922Z,24.97
2019-04-11T10:28:50.187Z,25.47
2019-04-11T10:31:22.206Z,25.23
2019-04-11T10:34:17.449Z,32.50
2019-04-11T10:37:15.851Z,26.20
2019-04-11T10:40:04.125Z,24.63
2019-04-11T10:42:34.647Z,26.20
2019-04-11T10:45:26.882Z,24.77
2019-04-11T10:47:58.437Z,26.43
2019-04-11T10:50:50.668Z,26.87
2019-04-11T10:53:21.257Z,26.13
2019-04-11T10:56:10.701Z,25.10
2019-04-11T10:58:53.280Z,28.37
2019-04-11T11:01:48.506Z,26.83
2019-04-11T11:04:20.377Z,32.47
2019-04-11T11:06:52.122Z,26.00
2019-04-11T11:09:58.836Z,33.13
2019-04-11T11:12:47.570Z,25.77
2019-04-11T11:15:20.170Z,29.00
2019-04-11T11:18:42.676Z,27.70
2019-04-11T11:35:32.329Z,31.73
2019-04-11T11:38:06.730Z,30.57
2019-04-11T11:40:54.239Z,32.57
2019-04-11T11:43:25.631Z,33.07
2019-04-11T11:46:22.771Z,27.57
2019-04-11T11:48:54.308Z,30.20
2019-04-11T11:51:41.515Z,27.37
2019-04-11T11:54:17.574Z,26.80
2019-04-11T11:56:47.902Z,31.83
2019-04-11T11:59:30.273Z,29.27
2019-04-11T12:02:04.974Z,31.40
2019-04-11T12:04:56.496Z,29.97
2019-04-11T12:07:33.746Z,30.47
2019-04-11T12:10:19.474Z,30.17
2019-04-11T12:13:12.804Z,31.07
2019-04-11T12:16:19.037Z,30.40
2019-04-11T12:19:01.101Z,28.73
2019-04-11T12:21:32.183Z,28.33
2019-04-11T12:24:29.560Z,29.60
2019-04-11T12:27:18.445Z,29.73
2019-04-11T12:30:29.088Z,29.13
2019-04-11T12:33:27.681Z,27.77
2019-04-11T12:36:08.034Z,27.43
2019-04-11T12:38:50.072Z,31.93
2019-04-11T12:41:39.355Z,28.37
2019-04-11T12:44:29.613Z,31.83
2019-04-11T12:47:23.523Z,30.40
2019-04-11T12:50:29.939Z,30.97
2019-04-11T12:53:07.232Z,30.27
2019-04-11T12:55:50.783Z,32.50
2019-04-11T12:58:32.366Z,29.57
2019-04-11T13:01:32.425Z,29.53
2019-04-11T13:04:29.217Z,28.97
2019-04-11T13:07:34.759Z,28.43
2019-04-11T13:10:34.901Z,32.07
2019-04-11T13:13:38.546Z,31.07
2019-04-11T13:16:15.981Z,32.33
2019-04-11T13:19:08.022Z,34.53
2019-04-11T13:21:58.985Z,31.33
2019-04-11T13:24:48.080Z,31.13
2019-04-11T13:27:19.732Z,30.93
2019-04-11T13:30:09.151Z,32.17
2019-04-11T13:32:45.789Z,33.47
2019-04-11T13:35:26.148Z,32.43
2019-04-11T13:38:13.005Z,34.33
2019-04-11T13:41:04.206Z,33.97
2019-04-11T13:44:01.440Z,36.03
2019-04-11T13:46:54.142Z,35.33
2019-04-11T13:49:41.680Z,35.77
2019-04-11T13:52:30.340Z,33.70
2019-04-11T14:12:18.200Z,38.67
2019-04-11T14:15:06.268Z,36.40
2019-04-11T14:17:52.949Z,36.03
2019-04-11T14:20:33.521Z,35.43
2019-04-11T14:23:24.843Z,32.67
2019-04-11T14:26:10.011Z,37.33
2019-04-11T14:28:51.559Z,35.63
2019-04-11T14:31:38.511Z,36.00
2019-04-11T14:34:29.406Z,33.97
2019-04-11T14:37:16.089Z,37.40
2019-04-11T14:39:47.798Z,40.90
2019-04-11T14:42:46.310Z,37.83
2019-04-11T14:45:37.326Z,37.10
2019-04-11T14:48:14.393Z,38.70
2019-04-11T14:51:03.257Z,39.50
2019-04-11T14:53:40.505Z,38.17
2019-04-11T14:56:11.622Z,40.20
2019-04-11T14:59:05.756Z,37.10
2019-04-11T15:01:35.298Z,35.37
2019-04-11T15:04:43.945Z,37.37
2019-04-11T15:07:15.463Z,37.43
2019-04-11T15:10:06.169Z,36.30
2019-04-11T15:12:35.618Z,39.57
2019-04-11T15:15:26.340Z,37.33
2019-04-11T15:18:00.591Z,38.70
2019-04-11T15:20:55.912Z,37.10
2019-04-11T15:23:37.508Z,37.80
2019-04-11T15:26:24.001Z,38.17
2019-04-11T15:29:21.005Z,36.10
2019-04-11T15:32:02.145Z,35.43
2019-04-11T15:34:39.708Z,37.77
2019-04-11T15:37:29.959Z,39.10
2019-04-11T15:40:19.310Z,36.67
2019-04-11T15:43:11.762Z,34.10
2019-04-11T15:45:52.476Z,35.90
2019-04-11T15:48:40.665Z,36.23
2019-04-11T15:51:16.907Z,38.03
2019-04-11T15:54:22.324Z,36.43
2019-04-11T15:57:02.441Z,37.33
2019-04-11T16:00:07.263Z,41.87
2019-04-11T16:02:58.086Z,36.30
2019-04-11T16:05:49.494Z,35.50
2019-04-11T16:08:30.993Z,41.93
2019-04-11T16:11:17.891Z,36.03
2019-04-11T16:14:14.221Z,36.13
2019-04-11T16:16:55.668Z,35.73
2019-04-11T16:19:42.295Z,40.40
2019-04-11T16:22:38.306Z,36.90
2019-04-11T16:25:13.336Z,43.90
2019-04-11T16:28:08.121Z,39.43
2019-04-11T16:30:45.791Z,40.20
2019-04-11T16:33:39.895Z,41.33
2019-04-11T16:36:18.428Z,37.87
2019-04-11T16:39:09.999Z,39.47
2019-04-11T16:41:56.904Z,37.13
2019-04-11T16:44:33.387Z,38.77
2019-04-11T16:47:16.743Z,39.73
2019-04-11T16:49:46.090Z,39.30
2019-04-11T16:52:15.320Z,38.33
2019-04-11T16:54:44.583Z,37.43
2019-04-11T16:57:14.309Z,41.87
2019-04-11T16:59:43.603Z,38.17
2019-04-11T17:02:12.802Z,34.53
2019-04-11T17:04:42.378Z,37.57
2019-04-11T17:07:36.837Z,35.37
2019-04-11T17:10:08.080Z,35.20
2019-04-11T17:12:37.295Z,36.37
2019-04-11T17:15:06.919Z,37.03
2019-04-11T17:17:36.387Z,36.43
2019-04-11T17:20:06.713Z,36.53
2019-04-11T17:22:35.910Z,37.27
2019-04-11T17:25:05.200Z,38.83
2019-04-11T17:27:34.407Z,35.17
2019-04-11T17:30:03.769Z,39.83
2019-04-11T17:32:32.963Z,38.73
2019-04-11T17:35:02.552Z,35.83
2019-04-11T17:37:33.236Z,32.60
2019-04-11T17:40:06.599Z,34.13
2019-04-11T17:42:33.835Z,33.87
2019-04-11T17:45:03.373Z,37.20
2019-04-11T17:47:32.573Z,35.03
2019-04-11T17:50:04.143Z,34.07
2019-04-11T17:52:32.801Z,35.00
2019-04-11T17:55:02.086Z,34.33
2019-04-11T17:57:31.285Z,31.63
2019-04-11T18:00:00.480Z,37.73
2019-04-11T18:02:29.737Z,40.07
2019-04-11T18:04:59.279Z,36.07
2019-04-11T18:07:28.548Z,32.97
2019-04-11T18:09:57.741Z,35.43
2019-04-11T18:12:27.006Z,32.30
2019-04-11T18:14:56.272Z,34.57
2019-04-11T18:17:25.554Z,35.03
2019-04-11T18:19:54.749Z,34.80
2019-04-11T18:22:24.018Z,32.77
2019-04-11T18:25:48.925Z,32.30
2019-04-11T18:28:21.659Z,31.73
2019-04-11T18:30:53.726Z,31.57
2019-04-11T18:33:20.645Z,29.67
2019-04-11T18:35:50.100Z,30.70
2019-04-11T18:38:19.520Z,30.67
2019-04-11T18:40:48.725Z,28.93
2019-04-11T18:43:18.420Z,31.53
2019-04-11T18:45:47.680Z,27.83
2019-04-11T18:48:17.094Z,26.37
2019-04-11T18:50:46.684Z,28.67
2019-04-11T18:53:15.892Z,27.53
2019-04-11T18:55:45.148Z,30.20
2019-04-11T18:58:15.248Z,25.30
2019-04-11T19:00:44.912Z,25.20
2019-04-11T19:03:14.587Z,25.33
2019-04-11T19:05:43.894Z,28.20
2019-04-11T19:08:13.775Z,30.40
2019-04-11T19:10:45.713Z,28.97
2019-04-11T19:13:16.707Z,26.23
2019-04-11T19:15:45.804Z,30.37
2019-04-11T19:18:16.398Z,26.37
2019-04-11T19:20:50.060Z,28.63
2019-04-11T19:23:17.705Z,28.23
2019-04-11T19:25:47.010Z,26.53
2019-04-11T19:28:16.537Z,26.77
2019-04-11T19:30:46.467Z,25.80
2019-04-11T19:33:15.722Z,27.93
2019-04-11T19:35:45.248Z,26.77
2019-04-11T19:38:33.748Z,24.77
2019-04-11T19:41:07.103Z,27.37
2019-04-11T19:43:41.374Z,27.30
2019-04-11T19:46:11.191Z,26.00
2019-04-11T19:48:41.839Z,25.20
2019-04-11T19:51:11.671Z,26.07
2019-04-11T19:53:41.335Z,25.83
2019-04-11T19:56:20.931Z,25.57
2019-04-11T19:58:50.208Z,24.70
2019-04-11T20:01:22.718Z,29.40
2019-04-11T20:03:53.767Z,27.40
2019-04-11T20:06:23.346Z,25.83
2019-04-11T20:08:53.069Z,24.67
2019-04-11T20:11:22.370Z,23.93
2019-04-11T20:13:51.663Z,24.83
2019-04-11T20:16:21.306Z,27.40
2019-04-11T20:18:51.644Z,22.37
2019-04-11T20:21:21.767Z,23.63
2019-04-11T20:23:51.081Z,22.27
2019-04-11T20:26:21.064Z,22.73
2019-04-11T20:28:50.904Z,22.40
2019-04-11T20:31:21.677Z,24.97
2019-04-11T20:33:51.208Z,24.87
2019-04-11T20:36:20.395Z,23.33
2019-04-11T20:38:49.739Z,23.67
2019-04-11T20:41:22.975Z,24.17
2019-04-11T20:43:50.186Z,24.07
2019-04-11T20:46:19.393Z,23.07
2019-04-11T20:48:48.642Z,22.80
2019-04-11T20:51:18.042Z,23.60
2019-04-11T20:53:47.346Z,25.80
2019-04-11T20:56:23.968Z,22.53
2019-04-11T20:58:47.496Z,24.53
2019-04-11T21:01:16.689Z,24.33
2019-04-11T21:03:46.295Z,22.60
2019-04-11T21:06:15.488Z,24.27
2019-04-11T21:08:44.765Z,22.50
2019-04-11T21:11:13.954Z,24.80
2019-04-11T21:13:43.194Z,25.17
2019-04-11T21:16:12.724Z,23.63
2019-04-11T21:18:41.967Z,22.03
2019-04-11T21:21:12.558Z,23.13
2019-04-11T21:23:41.810Z,21.40
2019-04-11T21:26:11.002Z,21.77
2019-04-11T21:28:40.272Z,23.33
2019-04-11T21:31:09.503Z,24.10
2019-04-11T21:33:38.684Z,22.33
2019-04-11T21:36:07.929Z,26.83
2019-04-11T21:38:37.110Z,21.10
2019-04-11T21:41:06.731Z,21.23
2019-04-11T21:43:36.845Z,22.63
2019-04-11T21:46:07.029Z,22.30
2019-04-11T21:48:36.843Z,24.63
2019-04-11T21:51:06.098Z,23.00
2019-04-11T21:53:36.671Z,23.53
2019-04-11T21:56:06.526Z,24.37
2019-04-11T21:58:35.722Z,22.80
2019-04-11T22:01:09.703Z,22.60
2019-04-11T22:03:39.449Z,23.73
2019-04-11T22:06:08.804Z,21.67
2019-04-11T22:08:37.995Z,25.87
2019-04-11T22:11:09.920Z,23.20
2019-04-11T22:13:40.400Z,23.80
2019-04-11T22:16:13.263Z,25.63
2019-04-11T22:18:40.489Z,22.77
2019-04-11T22:21:09.747Z,22.47
2019-04-11T22:23:48.284Z,20.90
2019-04-11T22:26:10.224Z,23.37
2019-04-11T22:28:39.688Z,23.23
2019-04-11T22:31:08.951Z,22.97
2019-04-11T22:33:42.608Z,23.27
2019-04-11T22:36:11.879Z,23.63
2019-04-11T22:38:41.085Z,21.87
2019-04-11T22:41:10.672Z,21.20
2019-04-11T22:43:39.902Z,26.17
2019-04-11T22:46:20.125Z,21.67
2019-04-11T22:48:40.336Z,25.83
2019-04-11T22:58:37.322Z,22.00
2019-04-11T23:01:06.608Z,21.50
2019-04-11T23:07:18.535Z,24.43
2019-04-11T23:09:49.026Z,21.80
2019-04-11T23:12:19.305Z,21.63
2019-04-11T23:14:48.508Z,21.83
2019-04-11T23:17:18.113Z,23.30
2019-04-11T23:19:47.313Z,21.27
2019-04-11T23:22:16.573Z,23.30
2019-04-11T23:24:45.810Z,22.87
2019-04-11T23:27:15.357Z,22.70
2019-04-11T23:29:44.742Z,23.93
2019-04-11T23:32:15.572Z,20.23
2019-04-11T23:34:44.891Z,21.17
2019-04-11T23:37:14.418Z,21.80
2019-04-11T23:39:43.685Z,21.87
2019-04-11T23:42:13.257Z,23.07
2019-04-11T23:44:42.496Z,20.47
2019-04-11T23:47:11.715Z,19.90
2019-04-11T23:49:41.262Z,22.03
2019-04-11T23:52:10.463Z,20.17
2019-04-11T23:54:39.733Z,19.40
2019-04-11T23:57:08.940Z,18.17
2019-04-11T23:59:38.192Z,18.97
